Terminal Aerodrome Forecast
Issued by NWS

Home | Current Version | Previous Version | Text Only | Print | Product List | Glossary On
Versions: 1 2 3 4 5 6 7 8 9 10 11 12 13
000
FTUS46 KLOX 202300
TAFLGB
TAF
KLGB 202336Z 2100/2124 24006KT P6SM BKN025
     FM210300 VRB03KT P6SM SCT025 BKN200
     FM212000 25006KT P6SM SCT200=

USA.gov is the U.S. government's official web portal to all federal, state and local government web resources and services.